sensor_id;sensor_type;location;lat;lon;timestamp;temperature;humidity
42099;DHT22;27758;55.900;8.516;2022-08-19T00:00:12;14.30;99.90
42099;DHT22;27758;55.900;8.516;2022-08-19T00:02:41;14.20;99.90
42099;DHT22;27758;55.900;8.516;2022-08-19T00:05:07;14.10;99.90
42099;DHT22;27758;55.900;8.516;2022-08-19T00:07:33;14.10;99.90
42099;DHT22;27758;55.900;8.516;2022-08-19T00:09:59;14.00;99.90
42099;DHT22;27758;55.900;8.516;2022-08-19T00:12:25;14.10;99.90
42099;DHT22;27758;55.900;8.516;2022-08-19T00:14:50;14.00;99.90
42099;DHT22;27758;55.900;8.516;2022-08-19T00:17:18;13.90;99.90
42099;DHT22;27758;55.900;8.516;2022-08-19T00:19:44;13.90;99.90
42099;DHT22;27758;55.900;8.516;2022-08-19T00:22:09;13.90;99.90
42099;DHT22;27758;55.900;8.516;2022-08-19T00:24:35;14.00;99.90
42099;DHT22;27758;55.900;8.516;2022-08-19T00:27:03;14.00;99.90
42099;DHT22;27758;55.900;8.516;2022-08-19T00:29:29;13.90;99.90
42099;DHT22;27758;55.900;8.516;2022-08-19T00:31:55;13.80;99.90
42099;DHT22;27758;55.900;8.516;2022-08-19T00:34:23;13.80;99.90
42099;DHT22;27758;55.900;8.516;2022-08-19T00:36:53;13.80;99.90
42099;DHT22;27758;55.900;8.516;2022-08-19T00:39:19;13.80;99.90
42099;DHT22;27758;55.900;8.516;2022-08-19T00:41:45;13.70;99.90
42099;DHT22;27758;55.900;8.516;2022-08-19T00:46:39;13.60;99.90
42099;DHT22;27758;55.900;8.516;2022-08-19T00:49:09;13.50;99.90
42099;DHT22;27758;55.900;8.516;2022-08-19T00:51:40;13.50;99.90
42099;DHT22;27758;55.900;8.516;2022-08-19T00:54:06;13.50;99.90
42099;DHT22;27758;55.900;8.516;2022-08-19T00:56:32;13.30;99.90
42099;DHT22;27758;55.900;8.516;2022-08-19T00:58:59;13.30;99.90
42099;DHT22;27758;55.900;8.516;2022-08-19T01:01:25;13.30;99.90
42099;DHT22;27758;55.900;8.516;2022-08-19T01:03:51;13.30;99.90
42099;DHT22;27758;55.900;8.516;2022-08-19T01:06:17;13.30;99.90
42099;DHT22;27758;55.900;8.516;2022-08-19T01:08:42;13.30;99.90
42099;DHT22;27758;55.900;8.516;2022-08-19T01:11:08;13.30;99.90
42099;DHT22;27758;55.900;8.516;2022-08-19T01:13:35;13.30;99.90
42099;DHT22;27758;55.900;8.516;2022-08-19T01:16:03;13.20;99.90
42099;DHT22;27758;55.900;8.516;2022-08-19T01:18:29;13.10;99.90
42099;DHT22;27758;55.900;8.516;2022-08-19T01:20:56;13.10;99.90
42099;DHT22;27758;55.900;8.516;2022-08-19T01:23:23;13.10;99.90
42099;DHT22;27758;55.900;8.516;2022-08-19T01:26:16;13.00;99.90
42099;DHT22;27758;55.900;8.516;2022-08-19T01:28:43;13.10;99.90
42099;DHT22;27758;55.900;8.516;2022-08-19T01:31:10;13.10;99.90
42099;DHT22;27758;55.900;8.516;2022-08-19T01:33:37;13.00;99.90
42099;DHT22;27758;55.900;8.516;2022-08-19T01:36:03;13.10;99.90
42099;DHT22;27758;55.900;8.516;2022-08-19T01:38:30;13.30;99.90
42099;DHT22;27758;55.900;8.516;2022-08-19T01:40:57;13.20;99.90
42099;DHT22;27758;55.900;8.516;2022-08-19T01:43:22;13.10;99.90
42099;DHT22;27758;55.900;8.516;2022-08-19T01:45:48;13.00;99.90
42099;DHT22;27758;55.900;8.516;2022-08-19T01:48:14;13.00;99.90
42099;DHT22;27758;55.900;8.516;2022-08-19T01:50:40;13.00;99.90
42099;DHT22;27758;55.900;8.516;2022-08-19T01:53:07;13.00;99.90
42099;DHT22;27758;55.900;8.516;2022-08-19T01:55:33;12.90;99.90
42099;DHT22;27758;55.900;8.516;2022-08-19T01:58:00;12.80;99.90
42099;DHT22;27758;55.900;8.516;2022-08-19T02:00:27;12.90;99.90
42099;DHT22;27758;55.900;8.516;2022-08-19T02:02:53;12.90;99.90
42099;DHT22;27758;55.900;8.516;2022-08-19T02:05:19;13.00;99.90
42099;DHT22;27758;55.900;8.516;2022-08-19T02:07:47;13.00;99.90
42099;DHT22;27758;55.900;8.516;2022-08-19T02:10:15;13.00;99.90
42099;DHT22;27758;55.900;8.516;2022-08-19T02:12:41;13.00;99.90
42099;DHT22;27758;55.900;8.516;2022-08-19T02:15:07;12.90;99.90
42099;DHT22;27758;55.900;8.516;2022-08-19T02:17:32;13.00;99.90
42099;DHT22;27758;55.900;8.516;2022-08-19T02:19:58;13.10;99.90
42099;DHT22;27758;55.900;8.516;2022-08-19T02:22:24;13.10;99.90
42099;DHT22;27758;55.900;8.516;2022-08-19T02:24:54;13.10;99.90
42099;DHT22;27758;55.900;8.516;2022-08-19T02:27:20;13.10;99.90
42099;DHT22;27758;55.900;8.516;2022-08-19T02:29:47;13.10;99.90
42099;DHT22;27758;55.900;8.516;2022-08-19T02:32:13;13.20;99.90
42099;DHT22;27758;55.900;8.516;2022-08-19T02:34:39;13.20;99.90
42099;DHT22;27758;55.900;8.516;2022-08-19T02:37:05;13.20;99.90
42099;DHT22;27758;55.900;8.516;2022-08-19T02:39:31;13.20;99.90
42099;DHT22;27758;55.900;8.516;2022-08-19T02:41:56;13.20;99.90
42099;DHT22;27758;55.900;8.516;2022-08-19T02:44:24;13.30;99.90
42099;DHT22;27758;55.900;8.516;2022-08-19T02:46:50;13.30;99.90
42099;DHT22;27758;55.900;8.516;2022-08-19T02:49:16;13.30;99.90
42099;DHT22;27758;55.900;8.516;2022-08-19T02:51:42;13.20;99.90
42099;DHT22;27758;55.900;8.516;2022-08-19T02:54:09;13.20;99.90
42099;DHT22;27758;55.900;8.516;2022-08-19T02:56:36;13.20;99.90
42099;DHT22;27758;55.900;8.516;2022-08-19T02:59:02;13.10;99.90
42099;DHT22;27758;55.900;8.516;2022-08-19T03:01:37;13.10;99.90
42099;DHT22;27758;55.900;8.516;2022-08-19T03:04:05;13.00;99.90
42099;DHT22;27758;55.900;8.516;2022-08-19T03:06:31;13.00;99.90
42099;DHT22;27758;55.900;8.516;2022-08-19T03:08:57;13.10;99.90
42099;DHT22;27758;55.900;8.516;2022-08-19T03:11:27;13.10;99.90
42099;DHT22;27758;55.900;8.516;2022-08-19T03:13:52;13.10;99.90
42099;DHT22;27758;55.900;8.516;2022-08-19T03:16:19;13.10;99.90
42099;DHT22;27758;55.900;8.516;2022-08-19T03:18:45;13.00;99.90
42099;DHT22;27758;55.900;8.516;2022-08-19T03:21:17;12.90;99.90
42099;DHT22;27758;55.900;8.516;2022-08-19T03:23:43;12.90;99.90
42099;DHT22;27758;55.900;8.516;2022-08-19T03:26:09;13.00;99.90
42099;DHT22;27758;55.900;8.516;2022-08-19T03:28:35;13.10;99.90
42099;DHT22;27758;55.900;8.516;2022-08-19T03:31:03;13.00;99.90
42099;DHT22;27758;55.900;8.516;2022-08-19T03:33:30;13.10;99.90
42099;DHT22;27758;55.900;8.516;2022-08-19T03:36:03;13.20;99.90
42099;DHT22;27758;55.900;8.516;2022-08-19T03:38:29;13.10;99.90
42099;DHT22;27758;55.900;8.516;2022-08-19T03:40:55;13.10;99.90
42099;DHT22;27758;55.900;8.516;2022-08-19T03:43:20;13.00;99.90
42099;DHT22;27758;55.900;8.516;2022-08-19T03:45:46;12.80;99.90
42099;DHT22;27758;55.900;8.516;2022-08-19T03:48:14;12.70;99.90
42099;DHT22;27758;55.900;8.516;2022-08-19T03:50:42;12.70;99.90
42099;DHT22;27758;55.900;8.516;2022-08-19T03:53:08;12.70;99.90
42099;DHT22;27758;55.900;8.516;2022-08-19T03:55:38;12.60;99.90
42099;DHT22;27758;55.900;8.516;2022-08-19T03:58:04;12.60;99.90
42099;DHT22;27758;55.900;8.516;2022-08-19T04:00:29;12.60;99.90
42099;DHT22;27758;55.900;8.516;2022-08-19T04:02:55;12.60;99.90
42099;DHT22;27758;55.900;8.516;2022-08-19T04:05:21;12.50;99.90
42099;DHT22;27758;55.900;8.516;2022-08-19T04:07:46;12.60;99.90
42099;DHT22;27758;55.900;8.516;2022-08-19T04:10:12;12.50;99.90
42099;DHT22;27758;55.900;8.516;2022-08-19T04:12:38;12.50;99.90
42099;DHT22;27758;55.900;8.516;2022-08-19T04:15:05;12.40;99.90
42099;DHT22;27758;55.900;8.516;2022-08-19T04:17:31;12.50;99.90
42099;DHT22;27758;55.900;8.516;2022-08-19T04:19:57;12.50;99.90
42099;DHT22;27758;55.900;8.516;2022-08-19T04:22:23;12.40;99.90
42099;DHT22;27758;55.900;8.516;2022-08-19T04:24:49;12.40;99.90
42099;DHT22;27758;55.900;8.516;2022-08-19T04:27:14;12.40;99.90
42099;DHT22;27758;55.900;8.516;2022-08-19T04:29:41;12.50;99.90
42099;DHT22;27758;55.900;8.516;2022-08-19T04:32:07;12.50;99.90
42099;DHT22;27758;55.900;8.516;2022-08-19T04:34:33;12.50;99.90
42099;DHT22;27758;55.900;8.516;2022-08-19T04:36:59;12.50;99.90
42099;DHT22;27758;55.900;8.516;2022-08-19T04:39:27;12.50;99.90
42099;DHT22;27758;55.900;8.516;2022-08-19T04:42:13;12.60;99.90
42099;DHT22;27758;55.900;8.516;2022-08-19T04:44:57;12.50;99.90
42099;DHT22;27758;55.900;8.516;2022-08-19T04:47:24;12.60;99.90
42099;DHT22;27758;55.900;8.516;2022-08-19T04:49:49;12.60;99.90
42099;DHT22;27758;55.900;8.516;2022-08-19T04:52:15;12.60;99.90
42099;DHT22;27758;55.900;8.516;2022-08-19T04:54:41;12.70;99.90
42099;DHT22;27758;55.900;8.516;2022-08-19T04:57:07;12.70;99.90
42099;DHT22;27758;55.900;8.516;2022-08-19T04:59:35;12.70;99.90
42099;DHT22;27758;55.900;8.516;2022-08-19T05:02:02;12.80;99.90
42099;DHT22;27758;55.900;8.516;2022-08-19T05:04:28;12.80;99.90
42099;DHT22;27758;55.900;8.516;2022-08-19T05:06:56;12.80;99.90
42099;DHT22;27758;55.900;8.516;2022-08-19T05:09:22;12.90;99.90
42099;DHT22;27758;55.900;8.516;2022-08-19T05:11:47;12.90;99.90
42099;DHT22;27758;55.900;8.516;2022-08-19T05:14:15;13.00;99.90
42099;DHT22;27758;55.900;8.516;2022-08-19T05:16:40;13.10;99.90
42099;DHT22;27758;55.900;8.516;2022-08-19T05:19:06;13.20;99.90
42099;DHT22;27758;55.900;8.516;2022-08-19T05:21:50;13.20;99.90
42099;DHT22;27758;55.900;8.516;2022-08-19T05:24:34;13.30;99.90
42099;DHT22;27758;55.900;8.516;2022-08-19T05:27:01;13.30;99.90
42099;DHT22;27758;55.900;8.516;2022-08-19T05:29:28;13.40;99.90
42099;DHT22;27758;55.900;8.516;2022-08-19T05:31:54;13.50;99.90
42099;DHT22;27758;55.900;8.516;2022-08-19T05:34:21;13.60;99.90
42099;DHT22;27758;55.900;8.516;2022-08-19T05:36:48;13.60;99.90
42099;DHT22;27758;55.900;8.516;2022-08-19T05:39:18;13.70;99.90
42099;DHT22;27758;55.900;8.516;2022-08-19T05:41:46;13.70;99.90
42099;DHT22;27758;55.900;8.516;2022-08-19T05:44:11;13.80;99.90
42099;DHT22;27758;55.900;8.516;2022-08-19T05:46:37;13.80;99.90
42099;DHT22;27758;55.900;8.516;2022-08-19T05:49:05;14.00;99.90
42099;DHT22;27758;55.900;8.516;2022-08-19T05:51:31;14.10;99.90
42099;DHT22;27758;55.900;8.516;2022-08-19T05:53:59;14.20;99.90
42099;DHT22;27758;55.900;8.516;2022-08-19T05:56:25;14.30;99.90
42099;DHT22;27758;55.900;8.516;2022-08-19T05:58:51;14.50;99.90
42099;DHT22;27758;55.900;8.516;2022-08-19T06:01:19;14.50;99.90
42099;DHT22;27758;55.900;8.516;2022-08-19T06:03:45;14.70;99.90
42099;DHT22;27758;55.900;8.516;2022-08-19T06:06:13;14.80;99.90
42099;DHT22;27758;55.900;8.516;2022-08-19T06:08:39;15.00;99.90
42099;DHT22;27758;55.900;8.516;2022-08-19T06:11:12;14.90;99.90
42099;DHT22;27758;55.900;8.516;2022-08-19T06:13:37;15.00;99.90
42099;DHT22;27758;55.900;8.516;2022-08-19T06:16:04;15.10;99.90
42099;DHT22;27758;55.900;8.516;2022-08-19T06:18:30;15.20;99.90
42099;DHT22;27758;55.900;8.516;2022-08-19T06:20:55;15.20;99.90
42099;DHT22;27758;55.900;8.516;2022-08-19T06:23:21;15.10;99.90
42099;DHT22;27758;55.900;8.516;2022-08-19T06:25:47;15.10;99.90
42099;DHT22;27758;55.900;8.516;2022-08-19T06:28:13;15.20;99.90
42099;DHT22;27758;55.900;8.516;2022-08-19T06:30:38;15.10;99.90
42099;DHT22;27758;55.900;8.516;2022-08-19T06:33:04;15.10;99.90
42099;DHT22;27758;55.900;8.516;2022-08-19T06:35:30;15.20;99.90
42099;DHT22;27758;55.900;8.516;2022-08-19T06:37:55;15.20;99.90
42099;DHT22;27758;55.900;8.516;2022-08-19T06:40:21;15.20;99.90
42099;DHT22;27758;55.900;8.516;2022-08-19T06:42:47;15.30;99.90
42099;DHT22;27758;55.900;8.516;2022-08-19T06:45:13;15.30;99.90
42099;DHT22;27758;55.900;8.516;2022-08-19T06:47:40;15.40;99.90
42099;DHT22;27758;55.900;8.516;2022-08-19T06:50:09;15.50;99.90
42099;DHT22;27758;55.900;8.516;2022-08-19T06:52:35;15.70;99.90
42099;DHT22;27758;55.900;8.516;2022-08-19T06:55:01;15.80;99.90
42099;DHT22;27758;55.900;8.516;2022-08-19T06:57:27;15.80;99.90
42099;DHT22;27758;55.900;8.516;2022-08-19T06:59:56;15.90;99.90
42099;DHT22;27758;55.900;8.516;2022-08-19T07:02:22;15.80;99.90
42099;DHT22;27758;55.900;8.516;2022-08-19T07:04:51;15.70;99.90
42099;DHT22;27758;55.900;8.516;2022-08-19T07:07:18;15.80;99.90
42099;DHT22;27758;55.900;8.516;2022-08-19T07:09:45;15.90;99.90
42099;DHT22;27758;55.900;8.516;2022-08-19T07:12:12;16.10;99.90
42099;DHT22;27758;55.900;8.516;2022-08-19T07:14:40;16.10;99.90
42099;DHT22;27758;55.900;8.516;2022-08-19T07:17:07;16.20;99.90
42099;DHT22;27758;55.900;8.516;2022-08-19T07:19:32;16.20;99.90
42099;DHT22;27758;55.900;8.516;2022-08-19T07:21:58;16.30;99.90
42099;DHT22;27758;55.900;8.516;2022-08-19T07:24:26;16.30;99.90
42099;DHT22;27758;55.900;8.516;2022-08-19T07:26:54;16.40;99.90
42099;DHT22;27758;55.900;8.516;2022-08-19T07:29:21;16.50;99.90
42099;DHT22;27758;55.900;8.516;2022-08-19T07:31:52;16.50;99.90
42099;DHT22;27758;55.900;8.516;2022-08-19T07:34:18;16.60;99.90
42099;DHT22;27758;55.900;8.516;2022-08-19T07:36:44;16.60;99.90
42099;DHT22;27758;55.900;8.516;2022-08-19T07:42:03;16.70;99.90
42099;DHT22;27758;55.900;8.516;2022-08-19T07:44:29;16.80;99.90
42099;DHT22;27758;55.900;8.516;2022-08-19T07:46:55;16.80;99.90
42099;DHT22;27758;55.900;8.516;2022-08-19T07:49:22;16.90;99.90
42099;DHT22;27758;55.900;8.516;2022-08-19T07:51:50;16.90;99.90
42099;DHT22;27758;55.900;8.516;2022-08-19T07:54:16;17.00;99.90
42099;DHT22;27758;55.900;8.516;2022-08-19T07:56:42;17.10;99.90
42099;DHT22;27758;55.900;8.516;2022-08-19T07:59:08;17.10;99.90
42099;DHT22;27758;55.900;8.516;2022-08-19T08:01:35;17.20;99.90
42099;DHT22;27758;55.900;8.516;2022-08-19T08:04:00;17.10;99.90
42099;DHT22;27758;55.900;8.516;2022-08-19T08:06:45;17.30;99.90
42099;DHT22;27758;55.900;8.516;2022-08-19T08:09:33;17.30;99.90
42099;DHT22;27758;55.900;8.516;2022-08-19T08:12:02;17.30;99.90
42099;DHT22;27758;55.900;8.516;2022-08-19T08:14:30;17.30;99.90
42099;DHT22;27758;55.900;8.516;2022-08-19T08:16:56;17.40;99.90
42099;DHT22;27758;55.900;8.516;2022-08-19T08:19:23;17.30;99.90
42099;DHT22;27758;55.900;8.516;2022-08-19T08:21:50;17.30;99.90
42099;DHT22;27758;55.900;8.516;2022-08-19T08:24:16;17.30;99.90
42099;DHT22;27758;55.900;8.516;2022-08-19T08:26:42;17.30;99.90
42099;DHT22;27758;55.900;8.516;2022-08-19T08:29:10;17.50;99.90
42099;DHT22;27758;55.900;8.516;2022-08-19T08:31:37;17.60;99.90
42099;DHT22;27758;55.900;8.516;2022-08-19T08:34:03;17.70;99.90
42099;DHT22;27758;55.900;8.516;2022-08-19T08:36:29;17.80;99.90
42099;DHT22;27758;55.900;8.516;2022-08-19T08:38:54;17.80;99.90
42099;DHT22;27758;55.900;8.516;2022-08-19T08:47:02;18.10;99.90
42099;DHT22;27758;55.900;8.516;2022-08-19T08:52:00;18.10;99.90
42099;DHT22;27758;55.900;8.516;2022-08-19T08:54:32;18.20;99.90
42099;DHT22;27758;55.900;8.516;2022-08-19T08:56:59;18.30;99.90
42099;DHT22;27758;55.900;8.516;2022-08-19T09:01:51;18.40;99.90
42099;DHT22;27758;55.900;8.516;2022-08-19T09:04:17;18.50;99.90
42099;DHT22;27758;55.900;8.516;2022-08-19T09:06:47;18.60;99.90
42099;DHT22;27758;55.900;8.516;2022-08-19T09:09:30;18.70;99.90
42099;DHT22;27758;55.900;8.516;2022-08-19T09:12:14;19.00;99.90
42099;DHT22;27758;55.900;8.516;2022-08-19T09:14:50;19.00;99.90
42099;DHT22;27758;55.900;8.516;2022-08-19T09:17:23;19.10;99.90
42099;DHT22;27758;55.900;8.516;2022-08-19T09:20:04;19.30;99.90
42099;DHT22;27758;55.900;8.516;2022-08-19T09:22:33;19.40;99.90
42099;DHT22;27758;55.900;8.516;2022-08-19T09:24:59;19.20;99.90
42099;DHT22;27758;55.900;8.516;2022-08-19T09:27:25;19.20;99.90
42099;DHT22;27758;55.900;8.516;2022-08-19T09:29:52;19.20;99.90
42099;DHT22;27758;55.900;8.516;2022-08-19T09:32:19;19.30;99.90
42099;DHT22;27758;55.900;8.516;2022-08-19T09:34:45;19.40;99.90
42099;DHT22;27758;55.900;8.516;2022-08-19T09:37:11;19.70;99.90
42099;DHT22;27758;55.900;8.516;2022-08-19T09:39:38;19.90;99.90
42099;DHT22;27758;55.900;8.516;2022-08-19T09:42:04;19.90;99.90
42099;DHT22;27758;55.900;8.516;2022-08-19T09:44:30;19.90;99.90
42099;DHT22;27758;55.900;8.516;2022-08-19T09:46:56;20.10;99.90
42099;DHT22;27758;55.900;8.516;2022-08-19T09:49:22;20.10;99.90
42099;DHT22;27758;55.900;8.516;2022-08-19T09:51:51;20.10;99.90
42099;DHT22;27758;55.900;8.516;2022-08-19T09:54:17;20.20;99.90
42099;DHT22;27758;55.900;8.516;2022-08-19T09:56:43;20.30;99.90
42099;DHT22;27758;55.900;8.516;2022-08-19T09:59:09;20.40;99.90
42099;DHT22;27758;55.900;8.516;2022-08-19T10:01:37;20.60;99.90
42099;DHT22;27758;55.900;8.516;2022-08-19T10:04:03;20.80;99.90
42099;DHT22;27758;55.900;8.516;2022-08-19T10:06:36;20.90;99.90
42099;DHT22;27758;55.900;8.516;2022-08-19T10:09:03;21.20;99.90
42099;DHT22;27758;55.900;8.516;2022-08-19T10:11:33;21.20;99.90
42099;DHT22;27758;55.900;8.516;2022-08-19T10:14:00;21.60;99.90
42099;DHT22;27758;55.900;8.516;2022-08-19T10:16:27;22.00;99.90
42099;DHT22;27758;55.900;8.516;2022-08-19T10:18:53;22.30;99.90
42099;DHT22;27758;55.900;8.516;2022-08-19T10:21:24;23.10;99.90
42099;DHT22;27758;55.900;8.516;2022-08-19T10:23:51;23.40;99.90
42099;DHT22;27758;55.900;8.516;2022-08-19T10:26:21;23.60;99.90
42099;DHT22;27758;55.900;8.516;2022-08-19T10:28:47;23.70;99.90
42099;DHT22;27758;55.900;8.516;2022-08-19T10:31:14;23.80;99.90
42099;DHT22;27758;55.900;8.516;2022-08-19T10:33:40;24.40;99.90
42099;DHT22;27758;55.900;8.516;2022-08-19T10:36:09;24.90;99.90
42099;DHT22;27758;55.900;8.516;2022-08-19T10:38:35;24.70;99.90
42099;DHT22;27758;55.900;8.516;2022-08-19T10:41:08;24.90;99.90
42099;DHT22;27758;55.900;8.516;2022-08-19T10:43:34;25.10;99.90
42099;DHT22;27758;55.900;8.516;2022-08-19T10:46:04;24.80;99.90
42099;DHT22;27758;55.900;8.516;2022-08-19T10:48:31;24.60;99.90
42099;DHT22;27758;55.900;8.516;2022-08-19T10:50:57;24.70;99.90
42099;DHT22;27758;55.900;8.516;2022-08-19T10:53:42;24.70;99.90
42099;DHT22;27758;55.900;8.516;2022-08-19T10:56:08;24.30;99.90
42099;DHT22;27758;55.900;8.516;2022-08-19T10:58:52;24.20;99.90
42099;DHT22;27758;55.900;8.516;2022-08-19T11:01:18;24.10;99.90
42099;DHT22;27758;55.900;8.516;2022-08-19T11:03:43;24.30;99.90
42099;DHT22;27758;55.900;8.516;2022-08-19T11:06:10;24.70;99.90
42099;DHT22;27758;55.900;8.516;2022-08-19T11:08:36;25.20;99.90
42099;DHT22;27758;55.900;8.516;2022-08-19T11:11:06;25.00;99.90
42099;DHT22;27758;55.900;8.516;2022-08-19T11:13:33;24.80;99.90
42099;DHT22;27758;55.900;8.516;2022-08-19T11:16:08;25.00;99.90
42099;DHT22;27758;55.900;8.516;2022-08-19T11:18:35;24.90;99.90
42099;DHT22;27758;55.900;8.516;2022-08-19T11:21:05;25.40;99.90
42099;DHT22;27758;55.900;8.516;2022-08-19T11:23:32;25.80;99.90
42099;DHT22;27758;55.900;8.516;2022-08-19T11:25:58;25.80;99.90
42099;DHT22;27758;55.900;8.516;2022-08-19T11:28:25;25.90;99.90
42099;DHT22;27758;55.900;8.516;2022-08-19T11:30:50;25.70;99.90
42099;DHT22;27758;55.900;8.516;2022-08-19T11:33:16;25.60;99.90
42099;DHT22;27758;55.900;8.516;2022-08-19T11:35:42;26.10;99.90
42099;DHT22;27758;55.900;8.516;2022-08-19T11:38:08;26.60;99.90
42099;DHT22;27758;55.900;8.516;2022-08-19T11:40:33;27.20;99.90
42099;DHT22;27758;55.900;8.516;2022-08-19T11:42:59;27.30;99.90
42099;DHT22;27758;55.900;8.516;2022-08-19T11:45:26;27.50;99.90
42099;DHT22;27758;55.900;8.516;2022-08-19T11:47:53;27.10;99.90
42099;DHT22;27758;55.900;8.516;2022-08-19T11:50:19;27.20;99.90
42099;DHT22;27758;55.900;8.516;2022-08-19T11:52:44;27.40;99.90
42099;DHT22;27758;55.900;8.516;2022-08-19T11:55:11;27.10;99.90
42099;DHT22;27758;55.900;8.516;2022-08-19T11:57:37;27.30;99.90
42099;DHT22;27758;55.900;8.516;2022-08-19T12:00:04;27.40;99.90
42099;DHT22;27758;55.900;8.516;2022-08-19T12:02:31;27.50;99.90
42099;DHT22;27758;55.900;8.516;2022-08-19T12:04:57;27.30;99.90
42099;DHT22;27758;55.900;8.516;2022-08-19T12:07:22;27.30;99.90
42099;DHT22;27758;55.900;8.516;2022-08-19T12:09:50;27.40;99.90
42099;DHT22;27758;55.900;8.516;2022-08-19T12:12:16;28.00;99.90
42099;DHT22;27758;55.900;8.516;2022-08-19T12:14:42;28.00;99.90
42099;DHT22;27758;55.900;8.516;2022-08-19T12:17:08;28.20;99.90
42099;DHT22;27758;55.900;8.516;2022-08-19T12:19:35;28.30;99.30
42099;DHT22;27758;55.900;8.516;2022-08-19T12:22:02;28.60;99.90
42099;DHT22;27758;55.900;8.516;2022-08-19T12:24:32;28.90;99.90
42099;DHT22;27758;55.900;8.516;2022-08-19T12:26:58;29.20;99.90
42099;DHT22;27758;55.900;8.516;2022-08-19T12:29:27;29.30;99.00
42099;DHT22;27758;55.900;8.516;2022-08-19T12:31:55;29.40;98.40
42099;DHT22;27758;55.900;8.516;2022-08-19T12:34:27;29.40;98.00
42099;DHT22;27758;55.900;8.516;2022-08-19T12:36:56;29.50;98.80
42099;DHT22;27758;55.900;8.516;2022-08-19T12:39:22;29.20;98.90
42099;DHT22;27758;55.900;8.516;2022-08-19T12:41:48;29.40;99.10
42099;DHT22;27758;55.900;8.516;2022-08-19T12:44:14;29.50;99.20
42099;DHT22;27758;55.900;8.516;2022-08-19T12:46:40;29.70;98.50
42099;DHT22;27758;55.900;8.516;2022-08-19T12:49:05;29.50;98.30
42099;DHT22;27758;55.900;8.516;2022-08-19T12:51:31;29.60;98.00
42099;DHT22;27758;55.900;8.516;2022-08-19T12:53:57;29.40;98.20
42099;DHT22;27758;55.900;8.516;2022-08-19T12:56:23;29.50;98.30
42099;DHT22;27758;55.900;8.516;2022-08-19T12:58:49;29.40;99.20
42099;DHT22;27758;55.900;8.516;2022-08-19T13:01:15;29.20;99.90
42099;DHT22;27758;55.900;8.516;2022-08-19T13:03:41;29.20;99.60
42099;DHT22;27758;55.900;8.516;2022-08-19T13:06:08;29.20;99.00
42099;DHT22;27758;55.900;8.516;2022-08-19T13:08:34;29.00;98.10
42099;DHT22;27758;55.900;8.516;2022-08-19T13:11:07;28.60;97.80
42099;DHT22;27758;55.900;8.516;2022-08-19T13:13:33;28.50;99.40
42099;DHT22;27758;55.900;8.516;2022-08-19T13:16:00;28.20;98.90
42099;DHT22;27758;55.900;8.516;2022-08-19T13:18:27;28.20;99.00
42099;DHT22;27758;55.900;8.516;2022-08-19T13:20:53;28.10;99.90
42099;DHT22;27758;55.900;8.516;2022-08-19T13:23:19;27.50;99.90
42099;DHT22;27758;55.900;8.516;2022-08-19T13:25:44;26.90;99.90
42099;DHT22;27758;55.900;8.516;2022-08-19T13:28:10;26.70;99.90
42099;DHT22;27758;55.900;8.516;2022-08-19T13:30:36;26.60;99.90
42099;DHT22;27758;55.900;8.516;2022-08-19T13:33:20;26.40;99.90
42099;DHT22;27758;55.900;8.516;2022-08-19T13:35:50;26.10;99.90
42099;DHT22;27758;55.900;8.516;2022-08-19T13:38:21;26.00;99.90
42099;DHT22;27758;55.900;8.516;2022-08-19T13:40:48;25.90;99.90
42099;DHT22;27758;55.900;8.516;2022-08-19T13:43:15;25.90;99.90
42099;DHT22;27758;55.900;8.516;2022-08-19T13:45:40;25.90;99.90
42099;DHT22;27758;55.900;8.516;2022-08-19T13:48:06;25.90;99.90
42099;DHT22;27758;55.900;8.516;2022-08-19T13:50:34;25.80;99.90
42099;DHT22;27758;55.900;8.516;2022-08-19T13:53:01;25.80;99.90
42099;DHT22;27758;55.900;8.516;2022-08-19T13:55:27;25.90;99.90
42099;DHT22;27758;55.900;8.516;2022-08-19T13:57:55;25.90;99.90
42099;DHT22;27758;55.900;8.516;2022-08-19T14:00:21;25.80;99.90
42099;DHT22;27758;55.900;8.516;2022-08-19T14:02:49;25.90;99.90
42099;DHT22;27758;55.900;8.516;2022-08-19T14:05:17;25.90;99.90
42099;DHT22;27758;55.900;8.516;2022-08-19T14:07:43;25.80;99.90
42099;DHT22;27758;55.900;8.516;2022-08-19T14:10:09;25.80;99.90
42099;DHT22;27758;55.900;8.516;2022-08-19T14:12:36;25.70;99.90
42099;DHT22;27758;55.900;8.516;2022-08-19T14:15:03;25.70;99.90
42099;DHT22;27758;55.900;8.516;2022-08-19T14:17:29;25.70;99.90
42099;DHT22;27758;55.900;8.516;2022-08-19T14:19:58;25.60;99.90
42099;DHT22;27758;55.900;8.516;2022-08-19T14:22:30;25.70;99.90
42099;DHT22;27758;55.900;8.516;2022-08-19T14:24:56;25.60;99.90
42099;DHT22;27758;55.900;8.516;2022-08-19T14:27:22;25.60;99.90
42099;DHT22;27758;55.900;8.516;2022-08-19T14:29:53;25.70;99.90
42099;DHT22;27758;55.900;8.516;2022-08-19T14:32:20;25.60;99.90
42099;DHT22;27758;55.900;8.516;2022-08-19T14:34:46;25.60;99.90
42099;DHT22;27758;55.900;8.516;2022-08-19T14:37:13;25.60;99.90
42099;DHT22;27758;55.900;8.516;2022-08-19T14:39:41;25.60;99.90
42099;DHT22;27758;55.900;8.516;2022-08-19T14:42:08;25.70;99.90
42099;DHT22;27758;55.900;8.516;2022-08-19T14:44:34;25.80;99.90
42099;DHT22;27758;55.900;8.516;2022-08-19T14:47:00;25.70;99.90
42099;DHT22;27758;55.900;8.516;2022-08-19T14:49:26;25.70;99.90
42099;DHT22;27758;55.900;8.516;2022-08-19T14:51:52;25.80;99.90
42099;DHT22;27758;55.900;8.516;2022-08-19T14:54:18;26.00;99.90
42099;DHT22;27758;55.900;8.516;2022-08-19T14:56:43;25.90;99.90
42099;DHT22;27758;55.900;8.516;2022-08-19T14:59:09;25.80;99.90
42099;DHT22;27758;55.900;8.516;2022-08-19T15:01:35;25.70;99.90
42099;DHT22;27758;55.900;8.516;2022-08-19T15:04:01;25.60;99.90
42099;DHT22;27758;55.900;8.516;2022-08-19T15:06:27;25.50;99.90
42099;DHT22;27758;55.900;8.516;2022-08-19T15:08:53;25.50;99.90
42099;DHT22;27758;55.900;8.516;2022-08-19T15:11:20;25.50;99.90
42099;DHT22;27758;55.900;8.516;2022-08-19T15:13:46;25.50;99.90
42099;DHT22;27758;55.900;8.516;2022-08-19T15:16:12;25.30;99.90
42099;DHT22;27758;55.900;8.516;2022-08-19T15:18:40;25.00;99.90
42099;DHT22;27758;55.900;8.516;2022-08-19T15:21:13;24.70;99.90
42099;DHT22;27758;55.900;8.516;2022-08-19T15:23:40;24.50;99.90
42099;DHT22;27758;55.900;8.516;2022-08-19T15:26:06;24.50;99.90
42099;DHT22;27758;55.900;8.516;2022-08-19T15:28:33;24.50;99.90
42099;DHT22;27758;55.900;8.516;2022-08-19T15:30:59;24.50;99.90
42099;DHT22;27758;55.900;8.516;2022-08-19T15:33:25;24.60;99.90
42099;DHT22;27758;55.900;8.516;2022-08-19T15:35:51;24.70;99.90
42099;DHT22;27758;55.900;8.516;2022-08-19T15:38:17;24.60;99.90
42099;DHT22;27758;55.900;8.516;2022-08-19T15:40:47;24.50;99.90
42099;DHT22;27758;55.900;8.516;2022-08-19T15:43:14;24.50;99.90
42099;DHT22;27758;55.900;8.516;2022-08-19T15:45:40;24.30;99.90